createdAt,value
2022-11-20T00:01:30.356Z,-5.20
2022-11-20T00:03:58.892Z,-5.28
2022-11-20T00:06:27.127Z,-5.37
2022-11-20T00:09:01.007Z,-5.44
2022-11-20T00:11:29.837Z,-5.50
2022-11-20T00:13:59.783Z,-5.53
2022-11-20T00:16:29.378Z,-5.58
2022-11-20T00:18:56.236Z,-5.58
2022-11-20T00:21:25.884Z,-5.60
2022-11-20T00:23:55.325Z,-5.64
2022-11-20T00:26:24.052Z,-5.71
2022-11-20T00:28:56.068Z,-5.79
2022-11-20T00:31:24.077Z,-5.88
2022-11-20T00:33:50.841Z,-5.96
2022-11-20T00:36:20.095Z,-6.00
2022-11-20T00:38:47.723Z,-6.06
2022-11-20T00:41:16.724Z,-6.07
2022-11-20T00:43:44.020Z,-6.08
2022-11-20T00:46:14.774Z,-6.15
2022-11-20T00:48:41.788Z,-6.21
2022-11-20T00:51:09.133Z,-6.31
2022-11-20T00:53:35.984Z,-6.37
2022-11-20T00:56:07.569Z,-6.44
2022-11-20T00:58:36.944Z,-6.50
2022-11-20T01:01:21.948Z,-6.51
2022-11-20T01:03:51.302Z,-6.52
2022-11-20T01:06:24.121Z,-6.55
2022-11-20T01:08:53.470Z,-6.62
2022-11-20T01:11:23.304Z,-6.68
2022-11-20T01:13:51.812Z,-6.65
2022-11-20T01:16:23.167Z,-6.69
2022-11-20T01:18:53.190Z,-6.72
2022-11-20T01:21:25.959Z,-6.73
2022-11-20T01:23:53.184Z,-6.73
2022-11-20T01:26:22.329Z,-6.67
2022-11-20T01:28:49.379Z,-6.64
2022-11-20T01:31:16.402Z,-6.58
2022-11-20T01:33:44.466Z,-6.49
2022-11-20T01:36:12.729Z,-6.40
2022-11-20T01:38:40.333Z,-6.36
2022-11-20T01:41:08.710Z,-6.30
2022-11-20T01:43:36.048Z,-6.25
2022-11-20T01:46:05.212Z,-6.21
2022-11-20T01:48:37.600Z,-6.20
2022-11-20T01:51:07.809Z,-6.21
2022-11-20T01:53:38.229Z,-6.25
2022-11-20T01:56:10.657Z,-6.24
2022-11-20T01:58:40.757Z,-6.29
2022-11-20T02:01:07.879Z,-6.25
2022-11-20T02:03:34.813Z,-6.25
2022-11-20T02:06:13.815Z,-6.28
2022-11-20T02:08:40.486Z,-6.32
2022-11-20T02:11:07.944Z,-6.30
2022-11-20T02:13:44.831Z,-6.30
2022-11-20T02:16:16.165Z,-6.23
2022-11-20T02:18:44.404Z,-6.21
2022-11-20T02:21:18.537Z,-6.23
2022-11-20T02:23:57.112Z,-6.17
2022-11-20T02:26:26.607Z,-6.14
2022-11-20T02:28:53.465Z,-6.12
2022-11-20T02:31:20.474Z,-6.08
2022-11-20T02:33:47.292Z,-6.06
2022-11-20T02:36:16.585Z,-6.04
2022-11-20T02:38:44.670Z,-6.01
2022-11-20T02:41:11.738Z,-6.05
2022-11-20T02:43:38.524Z,-6.07
2022-11-20T02:46:09.165Z,-6.09
2022-11-20T02:48:36.131Z,-6.04
2022-11-20T02:51:03.394Z,-6.04
2022-11-20T02:53:30.279Z,-5.99
2022-11-20T02:55:57.402Z,-5.99
2022-11-20T02:58:24.165Z,-5.96
2022-11-20T03:00:51.442Z,-5.99
2022-11-20T03:03:18.340Z,-5.97
2022-11-20T03:05:45.417Z,-5.96
2022-11-20T03:08:12.195Z,-5.97
2022-11-20T03:10:39.260Z,-5.95
2022-11-20T03:13:06.398Z,-5.93
2022-11-20T03:15:33.408Z,-5.93
2022-11-20T03:18:00.245Z,-5.93
2022-11-20T03:20:27.321Z,-5.95
2022-11-20T03:22:55.189Z,-5.92
2022-11-20T03:25:23.078Z,-5.97
2022-11-20T03:27:49.879Z,-6.00
2022-11-20T03:30:17.022Z,-6.01
2022-11-20T03:32:44.292Z,-6.02
2022-11-20T03:35:11.369Z,-6.06
2022-11-20T03:37:38.144Z,-6.13
2022-11-20T03:40:05.943Z,-6.15
2022-11-20T03:42:47.936Z,-6.15
2022-11-20T03:45:17.110Z,-6.15
2022-11-20T03:47:44.861Z,-6.19
2022-11-20T03:50:14.625Z,-6.23
2022-11-20T03:52:41.802Z,-6.34
2022-11-20T03:55:09.284Z,-6.36
2022-11-20T03:57:36.082Z,-6.33
2022-11-20T04:00:04.364Z,-6.39
2022-11-20T04:02:31.244Z,-6.45
2022-11-20T04:04:58.345Z,-6.46
2022-11-20T04:07:25.176Z,-6.42
2022-11-20T04:09:52.233Z,-6.44
2022-11-20T04:12:19.010Z,-6.43
2022-11-20T04:14:46.081Z,-6.43
2022-11-20T04:17:12.816Z,-6.46
2022-11-20T04:19:39.862Z,-6.52
2022-11-20T04:22:06.717Z,-6.58
2022-11-20T04:24:33.761Z,-6.58
2022-11-20T04:27:00.543Z,-6.60
2022-11-20T04:29:27.588Z,-6.60
2022-11-20T04:31:54.377Z,-6.60
2022-11-20T04:34:21.478Z,-6.61
2022-11-20T04:36:48.284Z,-6.59
2022-11-20T04:39:16.502Z,-6.59
2022-11-20T04:41:43.645Z,-6.55
2022-11-20T04:44:10.737Z,-6.54
2022-11-20T04:46:40.968Z,-6.52
2022-11-20T04:49:08.827Z,-6.55
2022-11-20T04:51:36.085Z,-6.53
2022-11-20T04:54:03.253Z,-6.53
2022-11-20T04:56:30.172Z,-6.57
2022-11-20T04:59:01.258Z,-6.60
2022-11-20T05:01:28.175Z,-6.66
2022-11-20T05:03:55.234Z,-6.74
2022-11-20T05:06:23.400Z,-6.79
2022-11-20T05:08:50.654Z,-6.83
2022-11-20T05:11:20.137Z,-6.87
2022-11-20T05:13:48.022Z,-6.91
2022-11-20T05:16:18.647Z,-6.94
2022-11-20T05:18:46.522Z,-6.97
2022-11-20T05:21:14.269Z,-6.98
2022-11-20T05:23:41.873Z,-7.01
2022-11-20T05:26:16.069Z,-7.02
2022-11-20T05:28:43.321Z,-7.12
2022-11-20T05:31:16.237Z,-7.15
2022-11-20T05:33:45.133Z,-7.14
2022-11-20T05:36:14.304Z,-7.16
2022-11-20T05:38:42.572Z,-7.15
2022-11-20T05:41:09.290Z,-7.13
2022-11-20T05:43:37.864Z,-7.15
2022-11-20T05:46:06.124Z,-7.14
2022-11-20T05:48:34.385Z,-7.12
2022-11-20T05:51:02.901Z,-7.09
2022-11-20T05:53:30.105Z,-7.06
2022-11-20T05:55:58.401Z,-7.05
2022-11-20T05:58:25.856Z,-7.04
2022-11-20T06:00:52.782Z,-6.98
2022-11-20T06:03:20.087Z,-6.91
2022-11-20T06:05:46.983Z,-6.89
2022-11-20T06:08:14.031Z,-6.86
2022-11-20T06:10:40.772Z,-6.85
2022-11-20T06:13:07.860Z,-6.83
2022-11-20T06:15:34.648Z,-6.77
2022-11-20T06:18:01.709Z,-6.73
2022-11-20T06:20:28.556Z,-6.66
2022-11-20T06:22:55.597Z,-6.60
2022-11-20T06:25:22.329Z,-6.53
2022-11-20T06:27:49.317Z,-6.47
2022-11-20T06:30:16.354Z,-6.38
2022-11-20T06:32:43.690Z,-6.29
2022-11-20T06:35:10.799Z,-6.21
2022-11-20T06:37:37.896Z,-6.10
2022-11-20T06:40:05.243Z,-5.96
2022-11-20T06:42:33.415Z,-5.79
2022-11-20T06:45:00.168Z,-5.67
2022-11-20T06:47:27.217Z,-5.61
2022-11-20T06:49:53.991Z,-5.44
2022-11-20T06:52:21.064Z,-5.17
2022-11-20T06:54:47.791Z,-4.83
2022-11-20T06:57:14.837Z,-4.49
2022-11-20T06:59:41.706Z,-4.15
2022-11-20T07:02:13.103Z,-3.87
2022-11-20T07:04:40.840Z,-3.70
2022-11-20T07:07:07.943Z,-3.55
2022-11-20T07:09:35.036Z,-3.35
2022-11-20T07:12:02.114Z,-3.17
2022-11-20T07:14:28.932Z,-3.00
2022-11-20T07:16:56.185Z,-2.90
2022-11-20T07:19:23.147Z,-2.93
2022-11-20T07:21:50.333Z,-3.20
2022-11-20T07:24:17.075Z,-3.42
2022-11-20T07:26:48.001Z,-3.51
2022-11-20T07:29:14.748Z,-3.54
2022-11-20T07:31:41.892Z,-3.64
2022-11-20T07:34:08.686Z,-3.73
2022-11-20T07:36:35.965Z,-3.69
2022-11-20T07:39:02.884Z,-3.66
2022-11-20T07:41:30.185Z,-3.60
2022-11-20T07:43:56.985Z,-3.55
2022-11-20T07:46:23.996Z,-3.60
2022-11-20T07:48:50.838Z,-3.62
2022-11-20T07:51:17.951Z,-3.60
2022-11-20T07:53:44.698Z,-3.64
2022-11-20T07:56:12.084Z,-3.59
2022-11-20T07:58:38.857Z,-3.46
2022-11-20T08:01:07.821Z,-3.28
2022-11-20T08:03:35.325Z,-3.16
2022-11-20T08:06:03.007Z,-3.05
2022-11-20T08:08:33.408Z,-2.89
2022-11-20T08:11:33.595Z,-2.68
2022-11-20T08:14:15.419Z,-2.54
2022-11-20T08:16:44.828Z,-2.44
2022-11-20T08:19:11.947Z,-2.38
2022-11-20T08:21:39.205Z,-2.27
2022-11-20T08:24:06.750Z,-2.16
2022-11-20T08:26:33.581Z,-2.06
2022-11-20T08:29:00.826Z,-1.92
2022-11-20T08:31:28.590Z,-1.75
2022-11-20T08:33:56.005Z,-1.56
2022-11-20T08:36:23.490Z,-1.39
2022-11-20T08:38:55.324Z,-1.23
2022-11-20T08:41:25.394Z,-1.12
2022-11-20T08:43:57.695Z,-1.12
2022-11-20T08:46:26.362Z,-1.06
2022-11-20T08:48:54.230Z,-0.99
2022-11-20T08:51:21.668Z,-0.93
2022-11-20T08:53:49.677Z,-0.96
2022-11-20T08:56:16.945Z,-0.99
2022-11-20T08:59:15.439Z,-1.00
2022-11-20T09:01:31.186Z,-1.03
2022-11-20T09:03:58.493Z,-1.01
2022-11-20T09:06:25.249Z,-0.94
2022-11-20T09:08:55.720Z,-0.81
2022-11-20T09:11:22.716Z,-0.64
2022-11-20T09:13:50.492Z,-0.48
2022-11-20T09:16:17.273Z,-0.29
2022-11-20T09:18:44.451Z,-0.13
2022-11-20T09:21:12.936Z,0.07
2022-11-20T09:23:40.437Z,0.30
2022-11-20T09:26:10.092Z,0.60
2022-11-20T09:28:37.534Z,0.88
2022-11-20T09:31:09.400Z,1.29
2022-11-20T09:33:37.032Z,1.69
2022-11-20T09:36:04.100Z,2.17
2022-11-20T09:38:31.194Z,2.56
2022-11-20T09:41:03.950Z,2.85
2022-11-20T09:47:01.313Z,4.10
2022-11-20T09:49:43.469Z,4.84
2022-11-20T09:52:29.302Z,5.74
2022-11-20T09:54:56.549Z,6.59
2022-11-20T09:57:32.571Z,7.31
2022-11-20T10:00:06.728Z,7.89
2022-11-20T10:02:49.847Z,8.38
2022-11-20T10:05:51.420Z,8.61
2022-11-20T10:08:22.825Z,8.67
2022-11-20T10:10:58.702Z,8.55
2022-11-20T10:13:34.148Z,8.10
2022-11-20T10:16:01.173Z,7.53
2022-11-20T10:18:38.020Z,6.97
2022-11-20T10:21:16.889Z,6.27
2022-11-20T10:23:57.288Z,5.54
2022-11-20T10:26:41.599Z,5.13
2022-11-20T10:29:18.088Z,4.89
2022-11-20T10:31:54.362Z,4.67
2022-11-20T10:34:44.548Z,4.47
2022-11-20T10:37:19.024Z,4.39
2022-11-20T10:39:55.732Z,4.28
2022-11-20T10:42:33.038Z,4.22
2022-11-20T10:45:24.319Z,4.13
2022-11-20T10:47:54.086Z,3.99
2022-11-20T10:50:23.080Z,3.85
2022-11-20T10:53:08.351Z,3.69
2022-11-20T10:55:51.550Z,3.65
2022-11-20T10:58:42.194Z,3.64
2022-11-20T11:01:27.029Z,3.65
2022-11-20T11:03:56.508Z,3.76
2022-11-20T11:06:35.148Z,3.88
2022-11-20T11:09:12.899Z,4.13
2022-11-20T11:11:40.170Z,4.39
2022-11-20T11:14:13.157Z,4.59
2022-11-20T11:16:55.730Z,4.71
2022-11-20T11:19:23.681Z,4.80
2022-11-20T11:21:55.851Z,4.79
2022-11-20T11:24:43.090Z,4.59
2022-11-20T11:27:18.833Z,4.32
2022-11-20T11:29:47.520Z,3.88
2022-11-20T11:32:21.665Z,3.50
2022-11-20T11:35:20.077Z,3.16
2022-11-20T11:37:48.256Z,2.92
2022-11-20T11:40:23.966Z,2.71
2022-11-20T11:42:57.012Z,2.61
2022-11-20T11:45:24.789Z,2.53
2022-11-20T11:47:53.353Z,2.43
2022-11-20T11:50:22.066Z,2.31
2022-11-20T11:53:14.289Z,2.20
2022-11-20T11:55:45.080Z,2.13
2022-11-20T11:58:20.739Z,2.06
2022-11-20T12:01:07.984Z,2.00
2022-11-20T12:03:42.071Z,2.01
2022-11-20T12:06:16.572Z,1.94
2022-11-20T12:09:09.242Z,1.77
2022-11-20T12:11:44.934Z,1.65
2022-11-20T12:14:43.554Z,1.62
2022-11-20T12:17:15.146Z,1.70
2022-11-20T12:19:42.296Z,1.78
2022-11-20T12:22:34.343Z,1.80
2022-11-20T12:25:16.691Z,1.76
2022-11-20T12:28:18.006Z,1.66
2022-11-20T12:30:59.832Z,1.61
2022-11-20T12:33:59.090Z,1.63
2022-11-20T12:36:25.704Z,1.65
2022-11-20T12:39:11.408Z,1.66
2022-11-20T12:42:14.970Z,1.62
2022-11-20T12:45:06.628Z,1.53
2022-11-20T12:47:51.180Z,1.43
2022-11-20T12:51:13.960Z,1.34
2022-11-20T12:54:10.815Z,1.22
2022-11-20T12:56:51.427Z,1.11
2022-11-20T12:59:28.390Z,1.00
2022-11-20T13:02:18.263Z,0.96
2022-11-20T13:04:54.197Z,0.94
2022-11-20T13:07:23.933Z,1.01
2022-11-20T13:09:51.991Z,1.06
2022-11-20T13:12:28.258Z,1.11
2022-11-20T13:15:06.074Z,1.13
2022-11-20T13:17:41.665Z,1.11
2022-11-20T13:20:17.292Z,1.11
2022-11-20T13:22:47.617Z,1.13
2022-11-20T13:25:31.748Z,1.12
2022-11-20T13:28:01.510Z,1.11
2022-11-20T13:30:30.858Z,1.00
2022-11-20T13:33:10.163Z,0.92
2022-11-20T13:35:38.453Z,0.84
2022-11-20T13:38:05.495Z,0.82
2022-11-20T13:40:33.080Z,0.81
2022-11-20T13:43:19.193Z,0.79
2022-11-20T13:45:56.911Z,0.79
2022-11-20T13:48:27.347Z,0.78
2022-11-20T13:51:22.411Z,0.73
2022-11-20T13:54:05.601Z,0.69
2022-11-20T13:56:48.941Z,0.65
2022-11-20T13:59:24.959Z,0.58
2022-11-20T14:01:51.704Z,0.53
2022-11-20T14:04:30.126Z,0.50
2022-11-20T14:06:58.312Z,0.48
2022-11-20T14:09:31.223Z,0.46
2022-11-20T14:11:58.319Z,0.45
2022-11-20T14:14:27.976Z,0.43
2022-11-20T14:17:26.557Z,0.39
2022-11-20T14:19:54.948Z,0.35
2022-11-20T14:22:26.959Z,0.34
2022-11-20T14:25:02.817Z,0.31
2022-11-20T14:27:30.173Z,0.29
2022-11-20T14:29:57.331Z,0.23
2022-11-20T14:32:29.467Z,0.16
2022-11-20T14:35:09.778Z,0.10
2022-11-20T14:37:39.999Z,0.01
2022-11-20T14:40:31.200Z,-0.10
2022-11-20T14:42:59.513Z,-0.13
2022-11-20T14:45:27.393Z,-0.17
2022-11-20T14:47:57.610Z,-0.21
2022-11-20T14:50:28.619Z,-0.25
2022-11-20T14:52:57.640Z,-0.32
2022-11-20T14:55:27.671Z,-0.36
2022-11-20T14:58:22.027Z,-0.40
2022-11-20T15:01:26.486Z,-0.45
2022-11-20T15:04:20.648Z,-0.45
2022-11-20T15:06:53.356Z,-0.44
2022-11-20T15:09:20.231Z,-0.42
2022-11-20T15:12:02.470Z,-0.40
2022-11-20T15:14:31.638Z,-0.36
2022-11-20T15:16:58.844Z,-0.36
2022-11-20T15:19:27.466Z,-0.37
2022-11-20T15:21:54.557Z,-0.38
2022-11-20T15:24:21.852Z,-0.39
2022-11-20T15:26:49.243Z,-0.40
2022-11-20T15:29:21.920Z,-0.43
2022-11-20T15:31:48.999Z,-0.45
2022-11-20T15:34:16.631Z,-0.48
2022-11-20T15:36:44.788Z,-0.50
2022-11-20T15:39:12.662Z,-0.53
2022-11-20T15:41:40.261Z,-0.57
2022-11-20T15:44:07.586Z,-0.59
2022-11-20T15:46:41.228Z,-0.58
2022-11-20T15:49:13.454Z,-0.60
2022-11-20T15:51:47.669Z,-0.70
2022-11-20T15:54:21.588Z,-0.75
2022-11-20T15:56:50.346Z,-0.77
2022-11-20T15:59:17.100Z,-0.80
2022-11-20T16:01:44.404Z,-0.81
2022-11-20T16:04:16.348Z,-0.83
2022-11-20T16:06:43.868Z,-0.85
2022-11-20T16:09:10.715Z,-0.84
2022-11-20T16:11:38.480Z,-0.81
2022-11-20T16:14:25.208Z,-0.81
2022-11-20T16:16:52.579Z,-0.82
2022-11-20T16:19:19.650Z,-0.84
2022-11-20T16:21:46.748Z,-0.82
2022-11-20T16:24:17.268Z,-0.81
2022-11-20T16:26:44.385Z,-0.82
2022-11-20T16:29:11.353Z,-0.84
2022-11-20T16:31:38.664Z,-0.87
2022-11-20T16:34:11.792Z,-0.87
2022-11-20T16:36:44.704Z,-0.91
2022-11-20T16:39:12.650Z,-0.94
2022-11-20T16:41:40.148Z,-0.94
2022-11-20T16:44:11.714Z,-0.95
2022-11-20T16:46:40.885Z,-0.97
2022-11-20T16:49:11.906Z,-1.02
2022-11-20T16:51:38.937Z,-1.00
2022-11-20T16:54:07.948Z,-1.02
2022-11-20T16:56:35.257Z,-0.98
2022-11-20T16:59:02.981Z,-0.96
2022-11-20T17:01:30.740Z,-0.97
2022-11-20T17:04:00.053Z,-1.00
2022-11-20T17:06:29.962Z,-0.98
2022-11-20T17:08:57.837Z,-1.00
2022-11-20T17:11:25.935Z,-1.07
2022-11-20T17:13:55.012Z,-1.10
2022-11-20T17:16:24.283Z,-1.15
2022-11-20T17:18:51.327Z,-1.21
2022-11-20T17:21:19.271Z,-1.28
2022-11-20T17:23:47.079Z,-1.33
2022-11-20T17:26:20.124Z,-1.40
2022-11-20T17:28:47.844Z,-1.51
2022-11-20T17:31:17.582Z,-1.56
2022-11-20T17:33:46.413Z,-1.63
2022-11-20T17:36:16.510Z,-1.75
2022-11-20T17:38:44.606Z,-1.83
2022-11-20T17:41:17.068Z,-1.88
2022-11-20T17:43:44.460Z,-1.93
2022-11-20T17:46:17.165Z,-1.98
2022-11-20T17:48:44.853Z,-2.06
2022-11-20T17:51:17.313Z,-2.16
2022-11-20T17:53:46.638Z,-2.27
2022-11-20T17:56:32.325Z,-2.36
2022-11-20T17:58:59.511Z,-2.47
2022-11-20T18:01:27.902Z,-2.56
2022-11-20T18:03:56.750Z,-2.60
2022-11-20T18:06:25.533Z,-2.65
2022-11-20T18:08:52.809Z,-2.70
2022-11-20T18:11:19.784Z,-2.76
2022-11-20T18:14:07.706Z,-2.83
2022-11-20T18:16:37.684Z,-2.83
2022-11-20T18:19:04.785Z,-2.81
2022-11-20T18:21:32.337Z,-2.85
2022-11-20T18:23:59.098Z,-2.91
2022-11-20T18:26:26.589Z,-2.96
2022-11-20T18:28:54.236Z,-3.02
2022-11-20T18:31:21.557Z,-3.04
2022-11-20T18:33:48.589Z,-3.08
2022-11-20T18:36:18.452Z,-3.08
2022-11-20T18:38:47.603Z,-3.13
2022-11-20T18:41:35.970Z,-3.17
2022-11-20T18:44:23.376Z,-3.25
2022-11-20T18:46:51.062Z,-3.36
2022-11-20T18:49:18.227Z,-3.41
2022-11-20T18:51:45.424Z,-3.43
2022-11-20T18:54:13.583Z,-3.42
2022-11-20T18:56:40.833Z,-3.45
2022-11-20T18:59:09.688Z,-3.51
2022-11-20T19:01:37.693Z,-3.59
2022-11-20T19:04:12.152Z,-3.67
2022-11-20T19:06:41.147Z,-3.72
2022-11-20T19:09:10.417Z,-3.73
2022-11-20T19:11:39.408Z,-3.79
2022-11-20T19:14:06.502Z,-3.84
2022-11-20T19:16:33.839Z,-3.88
2022-11-20T19:19:03.351Z,-3.90
2022-11-20T19:21:31.087Z,-3.92
2022-11-20T19:24:00.113Z,-3.91
2022-11-20T19:26:27.346Z,-3.89
2022-11-20T19:28:54.225Z,-3.83
2022-11-20T19:31:25.018Z,-3.80
2022-11-20T19:33:57.173Z,-3.73
2022-11-20T19:36:30.025Z,-3.66
2022-11-20T19:38:57.376Z,-3.62
2022-11-20T19:41:31.710Z,-3.52
2022-11-20T19:44:00.036Z,-3.45
2022-11-20T19:46:28.738Z,-3.38
2022-11-20T19:48:56.436Z,-3.30
2022-11-20T19:51:31.501Z,-3.27
2022-11-20T19:54:00.034Z,-3.21
2022-11-20T19:56:28.695Z,-3.16
2022-11-20T19:58:56.933Z,-3.10
2022-11-20T20:01:26.913Z,-3.05
2022-11-20T20:03:54.358Z,-3.04
2022-11-20T20:06:23.907Z,-3.03
2022-11-20T20:09:00.960Z,-3.00
2022-11-20T20:11:30.816Z,-2.99
2022-11-20T20:13:59.122Z,-3.01
2022-11-20T20:16:27.917Z,-3.03
2022-11-20T20:18:56.752Z,-3.05
2022-11-20T20:21:24.382Z,-3.08
2022-11-20T20:23:55.365Z,-3.13
2022-11-20T20:26:24.372Z,-3.19
2022-11-20T20:28:51.463Z,-3.27
2022-11-20T20:31:21.477Z,-3.35
2022-11-20T20:33:48.571Z,-3.46
2022-11-20T20:36:17.499Z,-3.53
2022-11-20T20:38:46.349Z,-3.66
2022-11-20T20:41:14.359Z,-3.74
2022-11-20T20:44:00.333Z,-3.80
2022-11-20T20:46:27.364Z,-3.88
2022-11-20T20:48:55.034Z,-3.86
2022-11-20T20:51:22.971Z,-3.77
2022-11-20T20:53:50.496Z,-3.66
2022-11-20T20:56:18.274Z,-3.58
2022-11-20T20:58:45.380Z,-3.56
2022-11-20T21:01:15.909Z,-3.52
2022-11-20T21:03:43.055Z,-3.46
2022-11-20T21:06:11.234Z,-3.38
2022-11-20T21:08:40.805Z,-3.36
2022-11-20T21:11:16.986Z,-3.22
2022-11-20T21:13:45.363Z,-3.01
2022-11-20T21:16:14.063Z,-2.89
2022-11-20T21:18:41.097Z,-2.83
2022-11-20T21:21:30.621Z,-2.83
2022-11-20T21:23:57.439Z,-2.82
2022-11-20T21:26:24.607Z,-2.90
2022-11-20T21:28:51.380Z,-2.96
2022-11-20T21:31:24.965Z,-3.15
2022-11-20T21:33:53.812Z,-3.27
2022-11-20T21:36:25.905Z,-3.37
2022-11-20T21:38:54.957Z,-3.37
2022-11-20T21:41:22.730Z,-3.29
2022-11-20T21:44:15.837Z,-3.21
2022-11-20T21:46:39.024Z,-3.12
2022-11-20T21:49:05.886Z,-3.02
2022-11-20T21:51:33.393Z,-2.94
2022-11-20T21:54:00.139Z,-2.92
2022-11-20T21:56:27.298Z,-2.89
2022-11-20T21:58:54.979Z,-2.90
2022-11-20T22:01:29.734Z,-2.90
2022-11-20T22:03:59.185Z,-2.96
2022-11-20T22:06:30.421Z,-2.97
2022-11-20T22:08:57.278Z,-2.98
2022-11-20T22:11:24.359Z,-3.04
2022-11-20T22:14:10.109Z,-3.11
2022-11-20T22:16:38.135Z,-3.22
2022-11-20T22:19:05.981Z,-3.28
2022-11-20T22:21:33.520Z,-3.31
2022-11-20T22:24:00.801Z,-3.30
2022-11-20T22:26:39.689Z,-3.32
2022-11-20T22:29:07.731Z,-3.33
2022-11-20T22:31:34.813Z,-3.33
2022-11-20T22:34:02.366Z,-3.36
2022-11-20T22:36:31.250Z,-3.35
2022-11-20T22:38:58.702Z,-3.38
2022-11-20T22:41:27.855Z,-3.41
2022-11-20T22:43:57.096Z,-3.49
2022-11-20T22:46:25.293Z,-3.55
2022-11-20T22:48:54.837Z,-3.58
2022-11-20T22:51:25.090Z,-3.66
2022-11-20T22:53:52.494Z,-3.77
2022-11-20T22:56:19.818Z,-3.88
2022-11-20T22:58:48.820Z,-4.01
2022-11-20T23:01:31.078Z,-4.18
2022-11-20T23:04:00.398Z,-4.23
2022-11-20T23:06:27.687Z,-4.22
2022-11-20T23:08:55.097Z,-4.34
2022-11-20T23:11:24.654Z,-4.42
2022-11-20T23:13:58.047Z,-4.47
2022-11-20T23:16:27.975Z,-4.47
2022-11-20T23:19:00.584Z,-4.50
2022-11-20T23:21:28.338Z,-4.57
2022-11-20T23:23:57.214Z,-4.64
2022-11-20T23:26:26.420Z,-4.70
2022-11-20T23:28:53.832Z,-4.76
2022-11-20T23:31:21.064Z,-4.75
2022-11-20T23:33:47.886Z,-4.71
2022-11-20T23:36:15.328Z,-4.65
2022-11-20T23:38:42.280Z,-4.56
2022-11-20T23:41:12.700Z,-4.52
2022-11-20T23:43:39.718Z,-4.54
2022-11-20T23:46:07.378Z,-4.61
2022-11-20T23:48:36.585Z,-4.68
2022-11-20T23:51:05.121Z,-4.74
2022-11-20T23:53:32.145Z,-4.81
2022-11-20T23:56:01.966Z,-4.86
2022-11-20T23:58:38.792Z,-4.91
